sensor_id;sensor_type;location;lat;lon;timestamp;temperature;humidity
37886;DHT22;23726;52.520;13.434;2022-10-31T00:02:08;24.30;50.90
37886;DHT22;23726;52.520;13.434;2022-10-31T00:04:33;24.40;50.90
37886;DHT22;23726;52.520;13.434;2022-10-31T00:06:59;24.40;50.90
37886;DHT22;23726;52.520;13.434;2022-10-31T00:09:24;24.40;51.00
37886;DHT22;23726;52.520;13.434;2022-10-31T00:11:49;24.40;50.80
37886;DHT22;23726;52.520;13.434;2022-10-31T00:14:15;24.40;50.80
37886;DHT22;23726;52.520;13.434;2022-10-31T00:16:41;24.40;50.80
37886;DHT22;23726;52.520;13.434;2022-10-31T00:19:07;24.40;50.80
37886;DHT22;23726;52.520;13.434;2022-10-31T00:21:33;24.40;50.90
37886;DHT22;23726;52.520;13.434;2022-10-31T00:23:59;24.40;50.90
37886;DHT22;23726;52.520;13.434;2022-10-31T00:26:27;24.40;50.90
37886;DHT22;23726;52.520;13.434;2022-10-31T00:28:53;24.40;50.90
37886;DHT22;23726;52.520;13.434;2022-10-31T00:31:18;24.40;50.90
37886;DHT22;23726;52.520;13.434;2022-10-31T00:33:44;24.40;50.90
37886;DHT22;23726;52.520;13.434;2022-10-31T00:36:15;24.40;50.90
37886;DHT22;23726;52.520;13.434;2022-10-31T00:38:41;24.40;50.90
37886;DHT22;23726;52.520;13.434;2022-10-31T00:41:07;24.40;51.00
37886;DHT22;23726;52.520;13.434;2022-10-31T00:43:33;24.40;50.90
37886;DHT22;23726;52.520;13.434;2022-10-31T00:45:59;24.40;50.90
37886;DHT22;23726;52.520;13.434;2022-10-31T00:48:24;24.40;50.90
37886;DHT22;23726;52.520;13.434;2022-10-31T00:50:49;24.40;51.00
37886;DHT22;23726;52.520;13.434;2022-10-31T00:53:15;24.40;51.00
37886;DHT22;23726;52.520;13.434;2022-10-31T00:55:40;24.40;51.00
37886;DHT22;23726;52.520;13.434;2022-10-31T00:58:06;24.30;51.00
37886;DHT22;23726;52.520;13.434;2022-10-31T01:00:32;24.40;51.00
37886;DHT22;23726;52.520;13.434;2022-10-31T01:02:58;24.40;51.00
37886;DHT22;23726;52.520;13.434;2022-10-31T01:05:23;24.40;51.00
37886;DHT22;23726;52.520;13.434;2022-10-31T01:07:49;24.30;51.00
37886;DHT22;23726;52.520;13.434;2022-10-31T01:10:15;24.40;51.00
37886;DHT22;23726;52.520;13.434;2022-10-31T01:12:42;24.40;51.00
37886;DHT22;23726;52.520;13.434;2022-10-31T01:15:10;24.40;51.00
37886;DHT22;23726;52.520;13.434;2022-10-31T01:17:36;24.40;51.00
37886;DHT22;23726;52.520;13.434;2022-10-31T01:20:02;24.40;51.00
37886;DHT22;23726;52.520;13.434;2022-10-31T01:22:27;24.30;51.00
37886;DHT22;23726;52.520;13.434;2022-10-31T01:24:53;24.40;51.10
37886;DHT22;23726;52.520;13.434;2022-10-31T01:27:19;24.30;51.00
37886;DHT22;23726;52.520;13.434;2022-10-31T01:29:44;24.30;51.00
37886;DHT22;23726;52.520;13.434;2022-10-31T01:32:10;24.30;51.00
37886;DHT22;23726;52.520;13.434;2022-10-31T01:34:35;24.30;51.00
37886;DHT22;23726;52.520;13.434;2022-10-31T01:37:01;24.40;51.00
37886;DHT22;23726;52.520;13.434;2022-10-31T01:39:26;24.30;51.00
37886;DHT22;23726;52.520;13.434;2022-10-31T01:41:53;24.30;51.00
37886;DHT22;23726;52.520;13.434;2022-10-31T01:47:13;24.30;51.00
37886;DHT22;23726;52.520;13.434;2022-10-31T01:49:46;24.30;51.00
37886;DHT22;23726;52.520;13.434;2022-10-31T01:52:30;24.30;51.00
37886;DHT22;23726;52.520;13.434;2022-10-31T01:55:04;24.30;51.10
37886;DHT22;23726;52.520;13.434;2022-10-31T01:57:32;24.30;51.00
37886;DHT22;23726;52.520;13.434;2022-10-31T02:00:02;24.30;50.40
37886;DHT22;23726;52.520;13.434;2022-10-31T02:02:30;24.30;50.20
37886;DHT22;23726;52.520;13.434;2022-10-31T02:04:58;24.30;49.90
37886;DHT22;23726;52.520;13.434;2022-10-31T02:07:29;24.20;49.70
37886;DHT22;23726;52.520;13.434;2022-10-31T02:09:55;24.20;49.50
37886;DHT22;23726;52.520;13.434;2022-10-31T02:12:22;24.20;49.40
37886;DHT22;23726;52.520;13.434;2022-10-31T02:14:47;24.10;50.00
37886;DHT22;23726;52.520;13.434;2022-10-31T02:17:14;24.10;49.90
37886;DHT22;23726;52.520;13.434;2022-10-31T02:19:51;24.20;49.90
37886;DHT22;23726;52.520;13.434;2022-10-31T02:22:26;24.20;49.90
37886;DHT22;23726;52.520;13.434;2022-10-31T02:25:29;24.20;49.80
37886;DHT22;23726;52.520;13.434;2022-10-31T02:43:54;24.10;49.60
37886;DHT22;23726;52.520;13.434;2022-10-31T02:46:52;24.10;49.50
37886;DHT22;23726;52.520;13.434;2022-10-31T02:49:35;24.10;49.60
37886;DHT22;23726;52.520;13.434;2022-10-31T02:52:26;24.10;49.60
37886;DHT22;23726;52.520;13.434;2022-10-31T02:54:52;24.10;49.70
37886;DHT22;23726;52.520;13.434;2022-10-31T02:57:33;24.10;49.80
37886;DHT22;23726;52.520;13.434;2022-10-31T03:00:06;24.10;49.80
37886;DHT22;23726;52.520;13.434;2022-10-31T03:02:36;24.10;49.90
37886;DHT22;23726;52.520;13.434;2022-10-31T03:07:40;24.10;49.80
37886;DHT22;23726;52.520;13.434;2022-10-31T03:10:31;24.10;49.80
37886;DHT22;23726;52.520;13.434;2022-10-31T03:16:06;24.10;49.80
37886;DHT22;23726;52.520;13.434;2022-10-31T03:18:36;24.10;49.90
37886;DHT22;23726;52.520;13.434;2022-10-31T03:21:20;24.10;50.00
37886;DHT22;23726;52.520;13.434;2022-10-31T03:23:48;24.10;50.00
37886;DHT22;23726;52.520;13.434;2022-10-31T03:26:17;24.00;50.00
37886;DHT22;23726;52.520;13.434;2022-10-31T03:28:53;24.00;50.00
37886;DHT22;23726;52.520;13.434;2022-10-31T03:31:22;24.00;50.00
37886;DHT22;23726;52.520;13.434;2022-10-31T03:33:50;24.00;49.80
37886;DHT22;23726;52.520;13.434;2022-10-31T03:36:17;24.10;50.10
37886;DHT22;23726;52.520;13.434;2022-10-31T03:38:45;24.00;50.00
37886;DHT22;23726;52.520;13.434;2022-10-31T03:41:16;24.10;50.10
37886;DHT22;23726;52.520;13.434;2022-10-31T03:43:51;24.10;49.90
37886;DHT22;23726;52.520;13.434;2022-10-31T03:46:18;24.10;50.00
37886;DHT22;23726;52.520;13.434;2022-10-31T03:48:43;24.00;50.20
37886;DHT22;23726;52.520;13.434;2022-10-31T03:51:31;24.10;50.10
37886;DHT22;23726;52.520;13.434;2022-10-31T03:56:50;24.00;50.10
37886;DHT22;23726;52.520;13.434;2022-10-31T03:59:33;24.00;50.20
37886;DHT22;23726;52.520;13.434;2022-10-31T04:02:03;24.00;50.10
37886;DHT22;23726;52.520;13.434;2022-10-31T04:04:30;24.00;50.10
37886;DHT22;23726;52.520;13.434;2022-10-31T04:06:57;24.00;50.20
37886;DHT22;23726;52.520;13.434;2022-10-31T04:09:26;24.00;50.20
37886;DHT22;23726;52.520;13.434;2022-10-31T04:11:54;24.00;50.10
37886;DHT22;23726;52.520;13.434;2022-10-31T04:14:24;24.00;50.10
37886;DHT22;23726;52.520;13.434;2022-10-31T04:16:51;24.00;50.00
37886;DHT22;23726;52.520;13.434;2022-10-31T04:19:16;24.00;50.10
37886;DHT22;23726;52.520;13.434;2022-10-31T04:21:42;24.00;50.30
37886;DHT22;23726;52.520;13.434;2022-10-31T04:24:09;24.00;50.30
37886;DHT22;23726;52.520;13.434;2022-10-31T04:26:35;24.00;50.20
37886;DHT22;23726;52.520;13.434;2022-10-31T04:29:01;24.00;50.10
37886;DHT22;23726;52.520;13.434;2022-10-31T04:31:27;24.00;50.10
37886;DHT22;23726;52.520;13.434;2022-10-31T04:33:52;24.00;49.80
37886;DHT22;23726;52.520;13.434;2022-10-31T04:36:18;24.00;50.00
37886;DHT22;23726;52.520;13.434;2022-10-31T04:38:43;24.00;50.20
37886;DHT22;23726;52.520;13.434;2022-10-31T04:41:09;24.00;50.10
37886;DHT22;23726;52.520;13.434;2022-10-31T04:43:35;24.00;50.20
37886;DHT22;23726;52.520;13.434;2022-10-31T04:46:01;24.00;50.20
37886;DHT22;23726;52.520;13.434;2022-10-31T04:48:28;24.00;50.20
37886;DHT22;23726;52.520;13.434;2022-10-31T04:51:01;24.00;50.10
37886;DHT22;23726;52.520;13.434;2022-10-31T04:53:27;24.00;50.30
37886;DHT22;23726;52.520;13.434;2022-10-31T04:55:52;24.00;50.30
37886;DHT22;23726;52.520;13.434;2022-10-31T04:58:19;24.00;50.40
37886;DHT22;23726;52.520;13.434;2022-10-31T05:00:44;24.00;50.40
37886;DHT22;23726;52.520;13.434;2022-10-31T05:03:10;24.00;50.30
37886;DHT22;23726;52.520;13.434;2022-10-31T05:05:35;24.00;50.40
37886;DHT22;23726;52.520;13.434;2022-10-31T05:08:02;24.00;50.30
37886;DHT22;23726;52.520;13.434;2022-10-31T05:10:29;24.00;50.30
37886;DHT22;23726;52.520;13.434;2022-10-31T05:12:58;24.00;50.30
37886;DHT22;23726;52.520;13.434;2022-10-31T05:15:25;24.00;50.30
37886;DHT22;23726;52.520;13.434;2022-10-31T05:17:51;24.00;50.30
37886;DHT22;23726;52.520;13.434;2022-10-31T05:20:21;24.00;50.30
37886;DHT22;23726;52.520;13.434;2022-10-31T05:22:49;24.00;50.30
37886;DHT22;23726;52.520;13.434;2022-10-31T05:25:16;24.00;50.30
37886;DHT22;23726;52.520;13.434;2022-10-31T05:27:43;24.00;50.30
37886;DHT22;23726;52.520;13.434;2022-10-31T05:30:10;24.00;50.40
37886;DHT22;23726;52.520;13.434;2022-10-31T05:32:39;24.00;50.40
37886;DHT22;23726;52.520;13.434;2022-10-31T05:35:07;24.00;50.40
37886;DHT22;23726;52.520;13.434;2022-10-31T05:37:36;24.00;50.50
37886;DHT22;23726;52.520;13.434;2022-10-31T05:40:04;24.00;50.10
37886;DHT22;23726;52.520;13.434;2022-10-31T05:42:30;24.00;50.30
37886;DHT22;23726;52.520;13.434;2022-10-31T05:44:55;24.00;50.30
37886;DHT22;23726;52.520;13.434;2022-10-31T05:47:22;24.00;50.20
37886;DHT22;23726;52.520;13.434;2022-10-31T05:49:48;24.00;50.40
37886;DHT22;23726;52.520;13.434;2022-10-31T05:52:13;24.00;50.30
37886;DHT22;23726;52.520;13.434;2022-10-31T05:54:40;24.00;50.30
37886;DHT22;23726;52.520;13.434;2022-10-31T05:57:06;24.00;50.30
37886;DHT22;23726;52.520;13.434;2022-10-31T05:59:32;24.00;50.10
37886;DHT22;23726;52.520;13.434;2022-10-31T06:01:58;24.00;50.40
37886;DHT22;23726;52.520;13.434;2022-10-31T06:04:23;24.00;50.30
37886;DHT22;23726;52.520;13.434;2022-10-31T06:06:49;24.00;50.30
37886;DHT22;23726;52.520;13.434;2022-10-31T06:09:14;24.00;50.30
37886;DHT22;23726;52.520;13.434;2022-10-31T06:11:40;24.00;50.30
37886;DHT22;23726;52.520;13.434;2022-10-31T06:14:06;24.00;50.30
37886;DHT22;23726;52.520;13.434;2022-10-31T06:16:33;24.00;50.20
37886;DHT22;23726;52.520;13.434;2022-10-31T06:18:58;24.00;50.20
37886;DHT22;23726;52.520;13.434;2022-10-31T06:21:24;24.00;50.20
37886;DHT22;23726;52.520;13.434;2022-10-31T06:23:50;24.00;50.30
37886;DHT22;23726;52.520;13.434;2022-10-31T06:26:15;24.00;50.30
37886;DHT22;23726;52.520;13.434;2022-10-31T06:28:41;24.00;50.30
37886;DHT22;23726;52.520;13.434;2022-10-31T06:31:06;24.00;50.30
37886;DHT22;23726;52.520;13.434;2022-10-31T06:33:33;24.00;50.60
37886;DHT22;23726;52.520;13.434;2022-10-31T06:35:59;24.00;50.30
37886;DHT22;23726;52.520;13.434;2022-10-31T06:38:26;23.90;50.30
37886;DHT22;23726;52.520;13.434;2022-10-31T06:40:53;24.00;50.30
37886;DHT22;23726;52.520;13.434;2022-10-31T06:43:19;23.90;50.30
37886;DHT22;23726;52.520;13.434;2022-10-31T06:45:44;24.00;50.30
37886;DHT22;23726;52.520;13.434;2022-10-31T06:48:10;24.00;50.30
37886;DHT22;23726;52.520;13.434;2022-10-31T06:50:36;23.90;50.30
37886;DHT22;23726;52.520;13.434;2022-10-31T06:53:02;24.00;50.30
37886;DHT22;23726;52.520;13.434;2022-10-31T06:55:28;23.90;50.30
37886;DHT22;23726;52.520;13.434;2022-10-31T06:57:55;23.90;50.40
37886;DHT22;23726;52.520;13.434;2022-10-31T07:00:21;24.00;50.40
37886;DHT22;23726;52.520;13.434;2022-10-31T07:02:57;23.90;50.30
37886;DHT22;23726;52.520;13.434;2022-10-31T07:05:27;23.90;50.30
37886;DHT22;23726;52.520;13.434;2022-10-31T07:08:01;23.90;50.30
37886;DHT22;23726;52.520;13.434;2022-10-31T07:10:30;23.90;50.30
37886;DHT22;23726;52.520;13.434;2022-10-31T07:12:58;23.90;50.30
37886;DHT22;23726;52.520;13.434;2022-10-31T07:15:28;23.90;50.40
37886;DHT22;23726;52.520;13.434;2022-10-31T07:18:05;23.90;50.30
37886;DHT22;23726;52.520;13.434;2022-10-31T07:20:31;23.90;50.40
37886;DHT22;23726;52.520;13.434;2022-10-31T07:22:58;23.90;50.30
37886;DHT22;23726;52.520;13.434;2022-10-31T07:25:24;24.00;50.50
37886;DHT22;23726;52.520;13.434;2022-10-31T07:27:50;23.90;50.30
37886;DHT22;23726;52.520;13.434;2022-10-31T07:30:16;24.00;50.50
37886;DHT22;23726;52.520;13.434;2022-10-31T07:32:46;23.90;50.40
37886;DHT22;23726;52.520;13.434;2022-10-31T07:35:16;23.90;50.30
37886;DHT22;23726;52.520;13.434;2022-10-31T07:37:42;23.90;50.40
37886;DHT22;23726;52.520;13.434;2022-10-31T07:40:08;23.90;50.50
37886;DHT22;23726;52.520;13.434;2022-10-31T07:42:45;23.90;50.50
37886;DHT22;23726;52.520;13.434;2022-10-31T07:45:17;23.90;50.60
37886;DHT22;23726;52.520;13.434;2022-10-31T07:47:48;23.90;50.40
37886;DHT22;23726;52.520;13.434;2022-10-31T07:50:16;23.90;50.50
37886;DHT22;23726;52.520;13.434;2022-10-31T07:52:42;23.90;50.50
37886;DHT22;23726;52.520;13.434;2022-10-31T07:55:08;23.90;50.40
37886;DHT22;23726;52.520;13.434;2022-10-31T07:57:33;23.90;50.30
37886;DHT22;23726;52.520;13.434;2022-10-31T07:59:59;23.90;50.60
37886;DHT22;23726;52.520;13.434;2022-10-31T08:02:26;23.90;50.40
37886;DHT22;23726;52.520;13.434;2022-10-31T08:04:52;23.90;50.30
37886;DHT22;23726;52.520;13.434;2022-10-31T08:07:18;23.90;50.30
37886;DHT22;23726;52.520;13.434;2022-10-31T08:09:44;23.90;50.30
37886;DHT22;23726;52.520;13.434;2022-10-31T08:12:09;23.90;50.30
37886;DHT22;23726;52.520;13.434;2022-10-31T08:14:35;23.90;50.50
37886;DHT22;23726;52.520;13.434;2022-10-31T08:17:00;23.90;50.40
37886;DHT22;23726;52.520;13.434;2022-10-31T08:19:26;23.90;50.40
37886;DHT22;23726;52.520;13.434;2022-10-31T08:21:52;23.90;50.70
37886;DHT22;23726;52.520;13.434;2022-10-31T08:24:18;23.90;50.60
37886;DHT22;23726;52.520;13.434;2022-10-31T08:26:44;23.90;50.50
37886;DHT22;23726;52.520;13.434;2022-10-31T08:29:09;23.90;50.60
37886;DHT22;23726;52.520;13.434;2022-10-31T08:31:36;23.90;50.50
37886;DHT22;23726;52.520;13.434;2022-10-31T08:34:01;23.90;50.60
37886;DHT22;23726;52.520;13.434;2022-10-31T08:36:28;23.90;50.60
37886;DHT22;23726;52.520;13.434;2022-10-31T08:38:54;23.90;50.60
37886;DHT22;23726;52.520;13.434;2022-10-31T08:41:20;23.90;50.40
37886;DHT22;23726;52.520;13.434;2022-10-31T08:43:46;23.90;50.70
37886;DHT22;23726;52.520;13.434;2022-10-31T08:46:13;23.90;50.50
37886;DHT22;23726;52.520;13.434;2022-10-31T08:48:38;23.90;50.40
37886;DHT22;23726;52.520;13.434;2022-10-31T08:51:04;23.90;50.50
37886;DHT22;23726;52.520;13.434;2022-10-31T08:53:30;23.90;50.70
37886;DHT22;23726;52.520;13.434;2022-10-31T08:55:56;23.90;50.60
37886;DHT22;23726;52.520;13.434;2022-10-31T08:58:23;23.90;50.70
37886;DHT22;23726;52.520;13.434;2022-10-31T09:00:51;23.90;50.70
37886;DHT22;23726;52.520;13.434;2022-10-31T09:03:23;23.90;50.70
37886;DHT22;23726;52.520;13.434;2022-10-31T09:05:50;23.90;50.40
37886;DHT22;23726;52.520;13.434;2022-10-31T09:08:19;23.90;50.70
37886;DHT22;23726;52.520;13.434;2022-10-31T09:10:45;23.90;50.70
37886;DHT22;23726;52.520;13.434;2022-10-31T09:13:12;23.90;50.70
37886;DHT22;23726;52.520;13.434;2022-10-31T09:15:40;23.80;50.70
37886;DHT22;23726;52.520;13.434;2022-10-31T09:18:06;23.90;50.30
37886;DHT22;23726;52.520;13.434;2022-10-31T09:20:34;23.90;50.50
37886;DHT22;23726;52.520;13.434;2022-10-31T09:23:21;23.90;50.20
37886;DHT22;23726;52.520;13.434;2022-10-31T09:25:48;23.90;50.20
37886;DHT22;23726;52.520;13.434;2022-10-31T09:28:15;23.90;50.10
37886;DHT22;23726;52.520;13.434;2022-10-31T09:30:42;23.90;50.10
37886;DHT22;23726;52.520;13.434;2022-10-31T09:33:11;23.90;49.90
37886;DHT22;23726;52.520;13.434;2022-10-31T09:35:38;23.90;49.90
37886;DHT22;23726;52.520;13.434;2022-10-31T09:38:06;23.90;49.90
37886;DHT22;23726;52.520;13.434;2022-10-31T09:48:33;23.90;49.70
37886;DHT22;23726;52.520;13.434;2022-10-31T09:51:05;23.90;49.70
37886;DHT22;23726;52.520;13.434;2022-10-31T09:53:44;23.90;49.70
37886;DHT22;23726;52.520;13.434;2022-10-31T09:56:17;24.00;49.80
37886;DHT22;23726;52.520;13.434;2022-10-31T09:58:53;24.00;49.80
37886;DHT22;23726;52.520;13.434;2022-10-31T10:01:28;23.90;49.70
37886;DHT22;23726;52.520;13.434;2022-10-31T10:03:59;23.90;49.60
37886;DHT22;23726;52.520;13.434;2022-10-31T10:06:33;23.90;49.70
37886;DHT22;23726;52.520;13.434;2022-10-31T10:08:59;23.90;49.60
37886;DHT22;23726;52.520;13.434;2022-10-31T10:11:51;23.90;49.70
37886;DHT22;23726;52.520;13.434;2022-10-31T10:14:44;23.90;49.60
37886;DHT22;23726;52.520;13.434;2022-10-31T10:18:01;23.90;49.60
37886;DHT22;23726;52.520;13.434;2022-10-31T10:25:46;23.90;49.70
37886;DHT22;23726;52.520;13.434;2022-10-31T10:28:23;23.90;49.80
37886;DHT22;23726;52.520;13.434;2022-10-31T10:31:01;23.90;49.60
37886;DHT22;23726;52.520;13.434;2022-10-31T10:33:35;23.90;49.60
37886;DHT22;23726;52.520;13.434;2022-10-31T10:36:09;24.00;49.70
37886;DHT22;23726;52.520;13.434;2022-10-31T10:41:22;24.00;49.60
37886;DHT22;23726;52.520;13.434;2022-10-31T10:43:51;24.00;49.60
37886;DHT22;23726;52.520;13.434;2022-10-31T10:49:27;24.00;49.70
37886;DHT22;23726;52.520;13.434;2022-10-31T10:52:36;24.00;49.70
37886;DHT22;23726;52.520;13.434;2022-10-31T10:57:59;23.90;49.60
37886;DHT22;23726;52.520;13.434;2022-10-31T11:00:41;23.90;49.70
37886;DHT22;23726;52.520;13.434;2022-10-31T11:03:08;23.90;49.70
37886;DHT22;23726;52.520;13.434;2022-10-31T11:05:40;23.90;49.70
37886;DHT22;23726;52.520;13.434;2022-10-31T11:08:08;23.90;50.20
37886;DHT22;23726;52.520;13.434;2022-10-31T11:10:34;23.90;49.70
37886;DHT22;23726;52.520;13.434;2022-10-31T11:13:21;23.90;49.70
37886;DHT22;23726;52.520;13.434;2022-10-31T11:16:02;23.90;49.70
37886;DHT22;23726;52.520;13.434;2022-10-31T11:18:34;23.90;49.70
37886;DHT22;23726;52.520;13.434;2022-10-31T11:21:02;23.90;49.70
37886;DHT22;23726;52.520;13.434;2022-10-31T11:23:32;23.90;49.60
37886;DHT22;23726;52.520;13.434;2022-10-31T11:26:06;23.90;49.60
37886;DHT22;23726;52.520;13.434;2022-10-31T11:28:33;24.00;49.60
37886;DHT22;23726;52.520;13.434;2022-10-31T11:31:05;24.00;49.70
37886;DHT22;23726;52.520;13.434;2022-10-31T11:33:38;24.00;49.70
37886;DHT22;23726;52.520;13.434;2022-10-31T11:36:18;24.00;49.70
37886;DHT22;23726;52.520;13.434;2022-10-31T11:38:46;24.00;49.60
37886;DHT22;23726;52.520;13.434;2022-10-31T11:41:17;24.00;49.80
37886;DHT22;23726;52.520;13.434;2022-10-31T11:44:11;23.90;50.50
37886;DHT22;23726;52.520;13.434;2022-10-31T11:46:47;24.00;50.10
37886;DHT22;23726;52.520;13.434;2022-10-31T11:49:36;24.00;50.00
37886;DHT22;23726;52.520;13.434;2022-10-31T11:52:14;23.90;49.90
37886;DHT22;23726;52.520;13.434;2022-10-31T11:54:53;23.90;50.10
37886;DHT22;23726;52.520;13.434;2022-10-31T11:57:23;24.00;50.10
37886;DHT22;23726;52.520;13.434;2022-10-31T11:59:56;24.00;50.40
37886;DHT22;23726;52.520;13.434;2022-10-31T12:02:23;24.00;51.10
37886;DHT22;23726;52.520;13.434;2022-10-31T12:05:37;23.90;50.40
37886;DHT22;23726;52.520;13.434;2022-10-31T12:07:38;24.00;50.40
37886;DHT22;23726;52.520;13.434;2022-10-31T12:10:10;23.90;50.70
37886;DHT22;23726;52.520;13.434;2022-10-31T12:15:26;24.00;50.60
37886;DHT22;23726;52.520;13.434;2022-10-31T12:18:02;24.00;50.40
37886;DHT22;23726;52.520;13.434;2022-10-31T12:20:40;24.00;50.50
37886;DHT22;23726;52.520;13.434;2022-10-31T12:23:24;24.00;50.60
37886;DHT22;23726;52.520;13.434;2022-10-31T12:26:08;24.00;50.50
37886;DHT22;23726;52.520;13.434;2022-10-31T12:28:57;24.00;50.50
37886;DHT22;23726;52.520;13.434;2022-10-31T12:31:33;24.00;51.20
37886;DHT22;23726;52.520;13.434;2022-10-31T12:34:22;24.00;50.80
37886;DHT22;23726;52.520;13.434;2022-10-31T12:37:08;23.90;50.50
37886;DHT22;23726;52.520;13.434;2022-10-31T12:48:01;24.00;50.80
37886;DHT22;23726;52.520;13.434;2022-10-31T12:50:50;23.90;51.00
37886;DHT22;23726;52.520;13.434;2022-10-31T12:56:41;24.00;50.50
37886;DHT22;23726;52.520;13.434;2022-10-31T12:59:22;23.90;50.40
37886;DHT22;23726;52.520;13.434;2022-10-31T13:02:00;23.90;50.50
37886;DHT22;23726;52.520;13.434;2022-10-31T13:05:01;23.90;50.70
37886;DHT22;23726;52.520;13.434;2022-10-31T13:12:38;23.90;50.80
37886;DHT22;23726;52.520;13.434;2022-10-31T13:15:18;23.90;50.70
37886;DHT22;23726;52.520;13.434;2022-10-31T13:17:51;23.90;50.70
37886;DHT22;23726;52.520;13.434;2022-10-31T13:20:40;23.90;50.70
37886;DHT22;23726;52.520;13.434;2022-10-31T13:23:33;23.90;50.70
37886;DHT22;23726;52.520;13.434;2022-10-31T13:26:03;23.90;50.80
37886;DHT22;23726;52.520;13.434;2022-10-31T13:28:45;23.90;50.80
37886;DHT22;23726;52.520;13.434;2022-10-31T13:31:11;23.90;50.80
37886;DHT22;23726;52.520;13.434;2022-10-31T13:33:46;23.90;50.80
37886;DHT22;23726;52.520;13.434;2022-10-31T13:36:19;23.90;50.80
37886;DHT22;23726;52.520;13.434;2022-10-31T13:38:54;23.90;50.80
37886;DHT22;23726;52.520;13.434;2022-10-31T13:44:25;23.90;51.00
37886;DHT22;23726;52.520;13.434;2022-10-31T13:46:53;23.90;50.90
37886;DHT22;23726;52.520;13.434;2022-10-31T13:54:36;23.90;51.00
37886;DHT22;23726;52.520;13.434;2022-10-31T13:57:06;23.90;51.00
37886;DHT22;23726;52.520;13.434;2022-10-31T13:59:33;23.90;51.00
37886;DHT22;23726;52.520;13.434;2022-10-31T14:02:11;23.90;51.00
37886;DHT22;23726;52.520;13.434;2022-10-31T14:07:15;23.90;51.00
37886;DHT22;23726;52.520;13.434;2022-10-31T14:10:19;23.90;51.00
37886;DHT22;23726;52.520;13.434;2022-10-31T14:12:47;23.90;50.90
37886;DHT22;23726;52.520;13.434;2022-10-31T14:15:27;23.90;51.00
37886;DHT22;23726;52.520;13.434;2022-10-31T14:18:01;23.90;51.10
37886;DHT22;23726;52.520;13.434;2022-10-31T14:20:38;23.90;51.00
37886;DHT22;23726;52.520;13.434;2022-10-31T14:26:05;23.90;51.00
37886;DHT22;23726;52.520;13.434;2022-10-31T14:28:33;23.80;51.10
37886;DHT22;23726;52.520;13.434;2022-10-31T14:31:00;23.80;51.10
37886;DHT22;23726;52.520;13.434;2022-10-31T14:33:28;23.80;51.10
37886;DHT22;23726;52.520;13.434;2022-10-31T14:36:15;23.80;51.10
37886;DHT22;23726;52.520;13.434;2022-10-31T14:42:14;23.90;51.10
37886;DHT22;23726;52.520;13.434;2022-10-31T14:45:15;23.80;51.20
37886;DHT22;23726;52.520;13.434;2022-10-31T14:50:48;23.80;51.50
37886;DHT22;23726;52.520;13.434;2022-10-31T14:53:27;23.80;52.00
37886;DHT22;23726;52.520;13.434;2022-10-31T14:55:56;23.80;51.60
37886;DHT22;23726;52.520;13.434;2022-10-31T14:58:28;23.80;51.50
37886;DHT22;23726;52.520;13.434;2022-10-31T15:00:58;23.80;52.00
37886;DHT22;23726;52.520;13.434;2022-10-31T15:03:42;23.80;51.50
37886;DHT22;23726;52.520;13.434;2022-10-31T15:06:12;23.80;51.60
37886;DHT22;23726;52.520;13.434;2022-10-31T15:08:43;23.80;51.50
37886;DHT22;23726;52.520;13.434;2022-10-31T15:11:17;23.80;51.50
37886;DHT22;23726;52.520;13.434;2022-10-31T15:13:51;23.80;51.50
37886;DHT22;23726;52.520;13.434;2022-10-31T15:16:33;23.80;52.10
37886;DHT22;23726;52.520;13.434;2022-10-31T15:19:03;23.80;51.60
37886;DHT22;23726;52.520;13.434;2022-10-31T15:21:29;23.80;51.50
37886;DHT22;23726;52.520;13.434;2022-10-31T15:23:57;23.80;51.60
37886;DHT22;23726;52.520;13.434;2022-10-31T15:26:27;23.80;51.60
37886;DHT22;23726;52.520;13.434;2022-10-31T15:29:18;23.70;51.50
37886;DHT22;23726;52.520;13.434;2022-10-31T15:34:21;23.70;51.60
37886;DHT22;23726;52.520;13.434;2022-10-31T15:36:49;23.70;51.50
37886;DHT22;23726;52.520;13.434;2022-10-31T15:39:16;23.70;51.60
37886;DHT22;23726;52.520;13.434;2022-10-31T15:41:50;23.70;51.50
37886;DHT22;23726;52.520;13.434;2022-10-31T15:44:30;23.70;51.50
37886;DHT22;23726;52.520;13.434;2022-10-31T15:49:34;23.70;51.60
37886;DHT22;23726;52.520;13.434;2022-10-31T15:52:18;23.70;51.80
37886;DHT22;23726;52.520;13.434;2022-10-31T15:54:50;23.60;51.80
37886;DHT22;23726;52.520;13.434;2022-10-31T15:57:17;23.60;51.90
37886;DHT22;23726;52.520;13.434;2022-10-31T15:59:46;23.60;51.80
37886;DHT22;23726;52.520;13.434;2022-10-31T16:02:14;23.60;51.80
37886;DHT22;23726;52.520;13.434;2022-10-31T16:04:54;23.60;51.80
37886;DHT22;23726;52.520;13.434;2022-10-31T16:07:22;23.60;51.70
37886;DHT22;23726;52.520;13.434;2022-10-31T16:09:56;23.70;51.80
37886;DHT22;23726;52.520;13.434;2022-10-31T16:12:23;23.70;51.80
37886;DHT22;23726;52.520;13.434;2022-10-31T16:14:53;23.70;51.80
37886;DHT22;23726;52.520;13.434;2022-10-31T16:17:23;23.60;51.80
37886;DHT22;23726;52.520;13.434;2022-10-31T16:20:00;23.70;51.80
37886;DHT22;23726;52.520;13.434;2022-10-31T16:22:33;23.60;51.80
37886;DHT22;23726;52.520;13.434;2022-10-31T16:25:15;23.60;51.80
37886;DHT22;23726;52.520;13.434;2022-10-31T16:27:48;23.70;51.80
37886;DHT22;23726;52.520;13.434;2022-10-31T16:32:58;23.60;51.80
37886;DHT22;23726;52.520;13.434;2022-10-31T16:35:37;23.60;51.80
37886;DHT22;23726;52.520;13.434;2022-10-31T16:38:03;23.60;51.80
37886;DHT22;23726;52.520;13.434;2022-10-31T16:40:30;23.60;51.70
37886;DHT22;23726;52.520;13.434;2022-10-31T16:43:00;23.60;51.70
37886;DHT22;23726;52.520;13.434;2022-10-31T16:45:28;23.60;51.80
37886;DHT22;23726;52.520;13.434;2022-10-31T16:47:54;23.60;51.80
37886;DHT22;23726;52.520;13.434;2022-10-31T16:50:27;23.60;52.30
37886;DHT22;23726;52.520;13.434;2022-10-31T16:52:53;23.60;51.80
37886;DHT22;23726;52.520;13.434;2022-10-31T16:55:20;23.60;51.70
37886;DHT22;23726;52.520;13.434;2022-10-31T16:57:54;23.60;51.80
37886;DHT22;23726;52.520;13.434;2022-10-31T17:00:25;23.60;51.80
37886;DHT22;23726;52.520;13.434;2022-10-31T17:02:51;23.60;51.80
37886;DHT22;23726;52.520;13.434;2022-10-31T17:05:19;23.60;51.80
37886;DHT22;23726;52.520;13.434;2022-10-31T17:07:46;23.50;51.90
37886;DHT22;23726;52.520;13.434;2022-10-31T17:10:13;23.50;51.90
37886;DHT22;23726;52.520;13.434;2022-10-31T17:12:42;23.60;51.90
37886;DHT22;23726;52.520;13.434;2022-10-31T17:15:37;23.60;51.90